Time;durP1;ratioP1;P1;durP2;ratioP2;P2;SDS_P1;SDS_P2;PMS_P1;PMS_P2;Temp;Humidity;BMP_temperature;BMP_pressure;BME280_temperature;BME280_humidity;BME280_pressure;Samples;Min_cycle;Max_cycle;Signal;HPM_P1;HPM_P2
2023/10/08 00:01:41;;;;;;;;;7.00;6.00;;;;;21.54;100.00;98339.47;6234985;28;96920;-68
2023/10/08 00:04:45;;;;;;;;;5.00;4.00;;;;;21.62;100.00;98335.19;6234500;28;96715;-68
2023/10/08 00:07:48;;;;;;;;;3.60;3.00;;;;;21.57;100.00;98330.63;6233153;28;96368;-69
2023/10/08 00:10:57;;;;;;;;;5.00;5.00;;;;;21.57;100.00;98341.59;6217225;28;97578;-69
2023/10/08 00:14:01;;;;;;;;;5.60;5.60;;;;;21.57;100.00;98336.09;6238514;27;96864;-69
2023/10/08 00:17:04;;;;;;;;;6.00;5.33;;;;;21.61;100.00;98337.09;6218595;28;97147;-69
2023/10/08 00:20:15;;;;;;;;;8.00;6.80;;;;;21.57;100.00;98343.50;6216994;28;96900;-69
2023/10/08 00:23:19;;;;;;;;;5.00;4.60;;;;;21.55;100.00;98341.06;6236078;28;96392;-69
2023/10/08 00:26:27;;;;;;;;;7.00;6.00;;;;;21.48;100.00;98362.63;6237063;27;96716;-70
2023/10/08 00:29:32;;;;;;;;;6.00;6.00;;;;;21.51;100.00;98372.16;6237487;27;96904;-70
2023/10/08 00:32:36;;;;;;;;;7.00;6.00;;;;;21.47;100.00;98362.91;6223316;28;97229;-69
2023/10/08 00:35:40;;;;;;;;;5.00;5.00;;;;;21.42;100.00;98376.72;6235431;28;97443;-70
2023/10/08 00:38:44;;;;;;;;;7.00;6.00;;;;;21.43;100.00;98373.69;6240731;27;97135;-69
2023/10/08 00:41:50;;;;;;;;;7.00;7.00;;;;;21.37;100.00;98374.91;6234870;28;96868;-69
2023/10/08 00:44:54;;;;;;;;;5.00;4.60;;;;;21.33;100.00;98368.41;6235506;28;96413;-68
2023/10/08 00:47:58;;;;;;;;;9.00;8.00;;;;;21.20;100.00;98368.41;6236281;28;96325;-69
2023/10/08 00:51:16;;;;;;;;;6.00;5.00;;;;;21.12;100.00;98361.66;6236295;28;96923;-69
2023/10/08 00:54:20;;;;;;;;;7.00;7.00;;;;;21.10;100.00;98361.16;6253830;27;96801;-69
2023/10/08 00:57:28;;;;;;;;;5.00;4.00;;;;;21.02;100.00;98362.66;6251608;27;97595;-68
2023/10/08 01:00:37;;;;;;;;;4.00;4.00;;;;;20.94;100.00;98359.81;6237703;28;97041;-68
2023/10/08 01:03:44;;;;;;;;;2.00;1.20;;;;;20.85;100.00;98370.66;6222003;28;96725;-69
2023/10/08 01:06:51;;;;;;;;;1.00;1.00;;;;;20.75;100.00;98362.59;6241444;28;96867;-69
2023/10/08 01:09:59;;;;;;;;;1.00;1.00;;;;;20.63;100.00;98367.72;6241232;28;96808;-69
2023/10/08 01:13:07;;;;;;;;;0.40;0.00;;;;;20.59;100.00;98369.44;6240803;28;96839;-69
2023/10/08 01:16:10;;;;;;;;;2.00;2.00;;;;;20.52;100.00;98371.78;6223076;28;97089;-69
2023/10/08 01:19:20;;;;;;;;;1.00;1.00;;;;;20.44;100.00;98361.47;6240090;28;96944;-69
2023/10/08 01:22:29;;;;;;;;;1.00;1.00;;;;;20.40;100.00;98366.75;6206539;28;96751;-68
2023/10/08 01:25:33;;;;;;;;;1.00;1.00;;;;;20.33;100.00;98363.56;6240538;28;96529;-68
2023/10/08 01:28:37;;;;;;;;;2.00;2.00;;;;;20.25;100.00;98369.69;6240793;28;96984;-69
2023/10/08 01:31:40;;;;;;;;;1.00;0.60;;;;;20.19;100.00;98368.94;6222972;28;96691;-69
2023/10/08 01:34:45;;;;;;;;;0.00;0.00;;;;;20.11;100.00;98377.81;6221580;28;96645;-68
2023/10/08 01:37:50;;;;;;;;;0.00;0.00;;;;;20.05;100.00;98386.41;6240938;28;96675;-69
2023/10/08 01:40:53;;;;;;;;;1.00;1.00;;;;;19.87;100.00;98391.56;6240844;28;97220;-68
2023/10/08 01:43:59;;;;;;;;;2.00;2.00;;;;;19.65;100.00;98376.81;6222547;28;97703;-68
2023/10/08 01:47:04;;;;;;;;;0.60;0.60;;;;;19.46;100.00;98384.97;6222148;28;97065;-68
2023/10/08 01:50:21;;;;;;;;;1.60;1.60;;;;;19.25;100.00;98399.97;6239830;28;96701;-67
2023/10/08 01:53:26;;;;;;;;;1.00;1.00;;;;;19.10;100.00;98394.66;6218877;27;96869;-67
2023/10/08 01:56:29;;;;;;;;;1.00;1.00;;;;;18.95;100.00;98412.81;6219062;28;96675;-67
2023/10/08 01:59:33;;;;;;;;;0.00;0.00;;;;;18.82;100.00;98412.66;6219334;28;96799;-68
2023/10/08 02:02:36;;;;;;;;;1.00;1.00;;;;;18.75;100.00;98407.53;6233174;28;97148;-68
2023/10/08 02:05:42;;;;;;;;;0.75;0.75;;;;;18.69;100.00;98413.31;6224725;28;98437;-68
2023/10/08 02:08:47;;;;;;;;;2.00;2.00;;;;;18.60;100.00;98391.28;6220251;28;96873;-69
2023/10/08 02:11:53;;;;;;;;;0.00;0.00;;;;;18.48;100.00;98409.88;6240137;28;96556;-68
2023/10/08 02:14:56;;;;;;;;;0.20;0.20;;;;;18.41;100.00;98425.78;6241128;28;96363;-69
2023/10/08 02:17:59;;;;;;;;;0.00;0.00;;;;;18.32;100.00;98438.41;6240737;28;96333;-68
2023/10/08 02:21:05;;;;;;;;;0.60;0.60;;;;;18.24;100.00;98426.16;6240028;28;96423;-69
2023/10/08 02:24:11;;;;;;;;;2.00;2.00;;;;;18.21;100.00;98421.28;6240387;28;96253;-69
2023/10/08 02:27:15;;;;;;;;;1.00;1.00;;;;;18.06;100.00;98424.91;6239492;28;96381;-68
2023/10/08 02:30:18;;;;;;;;;1.00;1.00;;;;;17.99;100.00;98423.56;6222286;28;96259;-69
2023/10/08 02:33:21;;;;;;;;;0.00;0.00;;;;;17.84;100.00;98437.31;6240578;28;96592;-68
2023/10/08 02:36:25;;;;;;;;;1.00;1.00;;;;;17.76;100.00;98455.03;6237424;28;96880;-68
2023/10/08 02:39:32;;;;;;;;;0.00;0.00;;;;;17.60;100.00;98446.09;6221786;28;96337;-69
2023/10/08 02:42:35;;;;;;;;;0.80;0.80;;;;;17.47;100.00;98451.28;6222109;28;96668;-69
2023/10/08 02:45:39;;;;;;;;;1.00;1.00;;;;;17.39;100.00;98465.50;6237139;27;96765;-68
2023/10/08 02:48:42;;;;;;;;;2.00;1.00;;;;;17.33;100.00;98470.13;6271056;27;96592;-68
2023/10/08 02:51:45;;;;;;;;;0.00;0.00;;;;;17.24;100.00;98478.06;6237565;28;97632;-68
2023/10/08 02:54:52;;;;;;;;;0.60;0.60;;;;;17.21;100.00;98473.13;6246326;27;96485;-69
2023/10/08 02:57:57;;;;;;;;;1.00;1.00;;;;;17.21;100.00;98475.84;6264090;27;96538;-68
2023/10/08 03:01:00;;;;;;;;;0.00;0.00;;;;;17.11;100.00;98464.97;6235391;28;96419;-68
2023/10/08 03:04:17;;;;;;;;;1.00;1.00;;;;;17.08;100.00;98479.16;6242329;27;96363;-68
2023/10/08 03:07:31;;;;;;;;;0.80;0.80;;;;;17.11;100.00;98480.50;6246872;27;96804;-68
2023/10/08 03:10:38;;;;;;;;;0.00;0.00;;;;;17.01;100.00;98477.78;6224410;27;98579;-68
2023/10/08 03:13:41;;;;;;;;;0.20;0.20;;;;;16.96;100.00;98478.59;6238821;28;96410;-68
2023/10/08 03:16:48;;;;;;;;;1.80;1.40;;;;;16.93;100.00;98489.22;6226528;28;96916;-67
2023/10/08 03:19:52;;;;;;;;;1.00;1.00;;;;;16.93;100.00;98479.16;6227375;27;96351;-68
2023/10/08 03:22:56;;;;;;;;;2.00;2.00;;;;;16.87;100.00;98469.34;6220392;28;97575;-68
2023/10/08 03:26:10;;;;;;;;;1.00;1.00;;;;;16.84;100.00;98464.44;6239012;28;96374;-68
2023/10/08 03:29:15;;;;;;;;;1.00;1.00;;;;;16.76;100.00;98473.97;6226753;27;97178;-68
2023/10/08 03:32:26;;;;;;;;;2.00;2.00;;;;;16.75;100.00;98475.06;6236751;28;96372;-68
2023/10/08 03:35:36;;;;;;;;;0.00;0.00;;;;;16.76;100.00;98481.34;6211882;28;96266;-68
2023/10/08 03:38:49;;;;;;;;;0.00;0.00;;;;;16.77;100.00;98481.03;6197291;28;96307;-68
2023/10/08 03:42:05;;;;;;;;;2.00;2.00;;;;;16.80;100.00;98480.53;6237257;28;96537;-69
2023/10/08 03:45:16;;;;;;;;;1.00;1.00;;;;;16.81;100.00;98487.56;6238700;28;96284;-68
2023/10/08 03:48:22;;;;;;;;;2.00;2.00;;;;;16.81;100.00;98490.31;6239034;28;96355;-68
2023/10/08 03:51:27;;;;;;;;;1.00;1.00;;;;;16.82;100.00;98502.00;6237633;28;96744;-68
2023/10/08 03:54:34;;;;;;;;;1.00;1.00;;;;;16.76;100.00;98519.44;6217087;28;96857;-68
2023/10/08 03:57:48;;;;;;;;;2.00;2.00;;;;;16.79;100.00;98543.41;6237155;28;96655;-68
2023/10/08 04:01:03;;;;;;;;;1.50;1.50;;;;;16.81;100.00;98544.75;6213025;27;97198;-68
2023/10/08 04:04:12;;;;;;;;;1.00;1.00;;;;;16.74;100.00;98557.81;6241973;27;96312;-68
2023/10/08 04:07:28;;;;;;;;;1.00;1.00;;;;;16.74;100.00;98555.09;6209003;28;96613;-67
2023/10/08 04:11:07;;;;;;;;;2.00;2.00;;;;;16.72;100.00;98565.44;6220489;28;96267;-67
2023/10/08 04:14:04;;;;;;;;;0.75;0.75;;;;;16.72;100.00;98572.78;6211397;28;96726;-69
2023/10/08 04:17:09;;;;;;;;;1.00;1.00;;;;;16.73;100.00;98586.13;6213311;28;96465;-69
2023/10/08 04:20:30;;;;;;;;;1.60;1.00;;;;;16.72;100.00;98572.78;6215736;28;96618;-69
2023/10/08 04:23:38;;;;;;;;;2.00;2.00;;;;;16.62;100.00;98600.78;6219077;28;96682;-68
2023/10/08 04:26:42;;;;;;;;;2.00;2.00;;;;;16.61;100.00;98595.63;6235652;28;96694;-68
2023/10/08 04:29:49;;;;;;;;;4.00;4.00;;;;;16.62;100.00;98589.06;6236610;28;96264;-68
2023/10/08 04:32:53;;;;;;;;;2.80;2.80;;;;;16.60;100.00;98622.03;6215520;28;99150;-69
2023/10/08 04:35:56;;;;;;;;;1.80;1.00;;;;;16.62;100.00;98627.19;6236333;28;98112;-69
2023/10/08 04:39:05;;;;;;;;;0.00;0.00;;;;;16.59;100.00;98635.88;6236922;28;96363;-68
2023/10/08 04:42:10;;;;;;;;;4.00;3.00;;;;;16.58;100.00;98648.69;6239237;27;96783;-69
2023/10/08 04:45:19;;;;;;;;;2.00;2.00;;;;;16.57;100.00;98655.16;6235488;28;96435;-68
2023/10/08 04:48:23;;;;;;;;;4.00;4.00;;;;;16.59;100.00;98654.94;6236632;28;97514;-69
2023/10/08 04:51:34;;;;;;;;;4.00;4.00;;;;;16.57;100.00;98655.16;6236802;28;97127;-69
2023/10/08 04:54:40;;;;;;;;;4.00;4.00;;;;;16.56;100.00;98660.91;6236664;27;96724;-68
2023/10/08 04:57:43;;;;;;;;;3.80;3.80;;;;;16.51;100.00;98667.13;6237544;28;96305;-69
2023/10/08 05:00:54;;;;;;;;;1.00;1.00;;;;;16.43;100.00;98670.34;6240164;27;96517;-69
2023/10/08 05:14:28;;;;;;;;;0.00;0.00;;;;;16.31;100.00;98700.50;6221370;28;96781;-68
2023/10/08 05:17:45;;;;;;;;;1.00;1.00;;;;;16.27;100.00;98715.69;6216837;28;96720;-68
2023/10/08 05:21:02;;;;;;;;;2.20;2.20;;;;;16.25;100.00;98736.09;6230659;27;96957;-68
2023/10/08 05:24:13;;;;;;;;;2.40;2.40;;;;;16.22;100.00;98734.72;6215027;28;97315;-69
2023/10/08 05:27:37;;;;;;;;;2.80;2.00;;;;;16.22;100.00;98742.88;6236284;28;96539;-68
2023/10/08 05:30:53;;;;;;;;;1.00;1.00;;;;;16.28;100.00;98749.16;6249919;27;96866;-69
2023/10/08 05:34:14;;;;;;;;;1.00;1.00;;;;;16.29;100.00;98748.91;6246402;27;96821;-68
2023/10/08 05:37:32;;;;;;;;;0.00;0.00;;;;;16.23;100.00;98730.91;6236926;28;96435;-68
2023/10/08 05:41:04;;;;;;;;;1.00;1.00;;;;;16.16;100.00;98743.91;6237268;27;97512;-69
2023/10/08 05:44:38;;;;;;;;;3.00;2.00;;;;;16.17;100.00;98734.69;6238999;27;96955;-68
2023/10/08 05:48:06;;;;;;;;;0.75;0.75;;;;;16.15;100.00;98757.78;6239526;28;96553;-67
2023/10/08 05:51:23;;;;;;;;;1.25;1.00;;;;;16.14;100.00;98795.03;6235458;28;96881;-68
2023/10/08 05:54:36;;;;;;;;;2.60;2.60;;;;;16.07;100.00;98797.16;6242408;27;96507;-68
2023/10/08 05:57:40;;;;;;;;;2.00;2.00;;;;;16.06;100.00;98783.81;6227744;27;96419;-65
2023/10/08 06:01:02;;;;;;;;;1.00;1.00;;;;;15.95;100.00;98808.19;6231828;27;96581;-68
2023/10/08 06:04:20;;;;;;;;;1.00;1.00;;;;;15.91;100.00;98814.41;6232291;27;96900;-68
2023/10/08 06:07:33;;;;;;;;;2.00;2.00;;;;;15.90;100.00;98818.19;6249719;27;97375;-69
2023/10/08 06:10:42;;;;;;;;;2.00;1.00;;;;;15.80;100.00;98829.78;6227998;28;96597;-67
2023/10/08 06:13:50;;;;;;;;;1.60;1.60;;;;;15.79;100.00;98849.91;6237369;28;96806;-68
2023/10/08 06:17:13;;;;;;;;;2.00;1.00;;;;;15.77;100.00;98846.63;6227151;27;97445;-68
2023/10/08 06:20:22;;;;;;;;;5.00;4.00;;;;;15.79;100.00;98830.88;6244134;27;96500;-68
2023/10/08 06:23:28;;;;;;;;;2.00;2.00;;;;;15.71;100.00;98846.81;6234336;27;96520;-68
2023/10/08 06:26:34;;;;;;;;;3.00;3.00;;;;;15.81;100.00;98855.91;6232650;27;96902;-68
2023/10/08 06:29:44;;;;;;;;;1.60;1.00;;;;;15.86;100.00;98857.84;6232949;27;97402;-68
2023/10/08 06:32:50;;;;;;;;;2.00;2.00;;;;;15.88;100.00;98869.31;6236916;27;98251;-68
2023/10/08 06:36:02;;;;;;;;;3.00;3.00;;;;;15.91;100.00;98896.78;6236798;28;96636;-68
2023/10/08 06:39:12;;;;;;;;;3.40;3.00;;;;;15.95;100.00;98895.19;6219174;28;96733;-70
2023/10/08 06:42:17;;;;;;;;;4.40;4.40;;;;;15.99;100.00;98903.66;6237713;28;96458;-70
2023/10/08 06:45:22;;;;;;;;;3.25;3.00;;;;;15.97;100.00;98914.81;6222214;28;96758;-70
2023/10/08 06:48:29;;;;;;;;;3.50;3.00;;;;;15.93;100.00;98910.16;6238415;28;96514;-71
2023/10/08 06:51:33;;;;;;;;;2.00;2.00;;;;;15.89;100.00;98915.25;6239284;27;96821;-70
2023/10/08 06:54:38;;;;;;;;;2.00;1.40;;;;;15.88;100.00;98912.81;6219280;28;96674;-70
2023/10/08 06:57:42;;;;;;;;;3.00;3.00;;;;;15.91;100.00;98910.38;6235763;27;96870;-70
2023/10/08 07:00:48;;;;;;;;;3.00;3.00;;;;;15.94;100.00;98923.47;6218855;28;96766;-70
2023/10/08 07:03:56;;;;;;;;;2.60;2.60;;;;;16.00;100.00;98936.03;6236337;28;96360;-70
2023/10/08 07:07:00;;;;;;;;;4.00;4.00;;;;;16.06;100.00;98923.31;6238972;28;96493;-70
2023/10/08 07:10:08;;;;;;;;;4.00;4.00;;;;;16.15;100.00;98927.22;6213148;28;96485;-71
2023/10/08 07:13:17;;;;;;;;;2.60;2.60;;;;;16.14;100.00;98917.41;6214697;28;97313;-70
2023/10/08 07:16:20;;;;;;;;;3.40;3.00;;;;;16.06;100.00;98938.81;6230002;28;96697;-69
2023/10/08 07:19:32;;;;;;;;;5.25;4.00;;;;;16.12;100.00;98954.13;6241068;27;96244;-70
2023/10/08 07:22:38;;;;;;;;;7.75;7.75;;;;;16.05;100.00;98957.03;6237343;28;96695;-70
2023/10/08 07:25:46;;;;;;;;;5.00;5.00;;;;;16.08;100.00;98958.44;6237151;28;96439;-70
2023/10/08 07:28:51;;;;;;;;;4.67;4.67;;;;;16.08;100.00;98961.16;6237752;27;96524;-70
2023/10/08 07:31:55;;;;;;;;;7.00;6.00;;;;;16.15;100.00;98961.75;6230559;28;96610;-69
2023/10/08 07:35:14;;;;;;;;;3.00;2.00;;;;;16.22;100.00;98957.78;6235381;28;96471;-70
2023/10/08 07:38:18;;;;;;;;;5.40;4.40;;;;;16.26;100.00;98948.00;6230663;28;98829;-68
2023/10/08 07:41:23;;;;;;;;;6.00;5.50;;;;;16.46;100.00;98961.00;6237527;28;96356;-70
2023/10/08 07:44:28;;;;;;;;;5.00;5.00;;;;;16.57;100.00;98975.50;6236064;28;97611;-70
2023/10/08 07:47:31;;;;;;;;;5.60;5.00;;;;;16.62;100.00;98986.47;6235870;27;97009;-71
2023/10/08 07:50:34;;;;;;;;;7.60;6.60;;;;;16.82;100.00;98997.53;6237991;28;96304;-70
2023/10/08 07:53:38;;;;;;;;;7.00;6.60;;;;;16.89;100.00;98985.38;6232820;28;96751;-67
2023/10/08 07:56:43;;;;;;;;;5.00;4.60;;;;;17.24;100.00;98984.81;6222806;28;99203;-70
2023/10/08 07:59:47;;;;;;;;;4.00;4.00;;;;;18.29;100.00;98993.75;6222580;28;96818;-68
2023/10/08 08:02:52;;;;;;;;;5.00;4.25;;;;;18.62;100.00;98994.41;6231285;27;96570;-69
2023/10/08 08:05:56;;;;;;;;;4.00;2.60;;;;;18.83;100.00;98991.41;6212762;28;98953;-70
2023/10/08 08:08:59;;;;;;;;;5.60;5.60;;;;;19.45;100.00;98998.50;6229669;27;96348;-71
2023/10/08 08:12:07;;;;;;;;;4.00;3.00;;;;;20.41;100.00;99000.91;6236143;28;96932;-70
2023/10/08 08:15:15;;;;;;;;;4.00;4.00;;;;;21.07;100.00;99006.69;6219719;28;96725;-70
2023/10/08 08:18:23;;;;;;;;;4.00;4.00;;;;;21.17;100.00;99006.66;6231712;28;96788;-70
2023/10/08 08:21:30;;;;;;;;;4.00;4.00;;;;;20.87;100.00;99006.88;6234887;28;96700;-71
2023/10/08 08:24:35;;;;;;;;;4.80;4.80;;;;;20.51;100.00;99006.31;6216989;28;96629;-71
2023/10/08 08:27:41;;;;;;;;;3.20;2.60;;;;;20.20;100.00;99018.50;6217476;28;97715;-71
2023/10/08 08:30:46;;;;;;;;;5.20;4.80;;;;;19.77;100.00;99020.03;6236519;27;96352;-71
2023/10/08 08:34:02;;;;;;;;;4.20;4.00;;;;;20.05;100.00;99022.13;6233478;28;97943;-71
2023/10/08 08:37:06;;;;;;;;;5.00;4.00;;;;;22.13;100.00;99035.03;6231724;27;97615;-71
2023/10/08 08:40:17;;;;;;;;;5.40;5.00;;;;;24.72;100.00;99031.38;6217367;27;96329;-72
2023/10/08 08:43:23;;;;;;;;;5.00;4.00;;;;;27.20;100.00;99041.09;6235746;28;96889;-71
2023/10/08 08:46:30;;;;;;;;;6.00;6.00;;;;;26.55;97.13;99037.28;6229122;28;97137;-71
2023/10/08 08:49:37;;;;;;;;;6.00;6.00;;;;;25.11;100.00;99045.38;6216785;27;96867;-71
2023/10/08 08:52:42;;;;;;;;;6.60;6.60;;;;;25.38;100.00;99047.16;6227310;27;96345;-71
2023/10/08 08:55:45;;;;;;;;;4.20;4.20;;;;;26.05;97.24;99033.22;6246651;27;96808;-71
2023/10/08 08:58:50;;;;;;;;;4.00;4.00;;;;;28.31;85.22;99048.28;6247731;27;97072;-71
2023/10/08 09:01:55;;;;;;;;;4.80;4.80;;;;;29.76;75.01;99053.84;6243914;27;96362;-72
2023/10/08 09:04:59;;;;;;;;;4.00;3.40;;;;;28.47;72.00;99052.13;6225300;27;96830;-71
2023/10/08 09:08:06;;;;;;;;;3.75;3.75;;;;;27.55;77.92;99065.69;6244992;27;96314;-71
2023/10/08 09:11:10;;;;;;;;;5.00;5.00;;;;;27.62;79.42;99056.03;6250119;27;96515;-70
2023/10/08 09:14:15;;;;;;;;;3.00;3.00;;;;;28.51;79.83;99066.13;6236504;27;96786;-72
2023/10/08 09:17:18;;;;;;;;;4.00;4.00;;;;;29.60;60.36;99067.56;6219875;28;97658;-71
2023/10/08 09:20:22;;;;;;;;;2.60;2.60;;;;;29.78;58.52;99076.53;6236141;28;96872;-69
2023/10/08 09:23:25;;;;;;;;;3.00;3.00;;;;;30.15;54.87;99087.75;6240328;27;96624;-71
2023/10/08 09:26:29;;;;;;;;;1.25;1.25;;;;;31.65;57.10;99084.50;6240685;27;96411;-71
2023/10/08 09:29:39;;;;;;;;;3.50;3.50;;;;;32.24;46.91;99078.13;6230633;27;97492;-71
2023/10/08 09:32:43;;;;;;;;;3.00;3.00;;;;;33.22;42.96;99084.44;6230150;27;96268;-70
2023/10/08 09:35:47;;;;;;;;;2.00;2.00;;;;;33.61;40.12;99096.41;6240478;28;98035;-70
2023/10/08 09:38:53;;;;;;;;;3.40;3.40;;;;;31.78;41.49;99080.47;6240274;28;96673;-68
2023/10/08 09:41:58;;;;;;;;;3.00;3.00;;;;;30.33;47.80;99091.94;6239677;28;98077;-72
2023/10/08 09:45:05;;;;;;;;;3.60;3.00;;;;;28.75;54.92;99094.06;6220938;28;96686;-71
2023/10/08 09:48:12;;;;;;;;;3.00;3.00;;;;;27.17;59.37;99099.88;6233539;27;96439;-72
2023/10/08 09:51:17;;;;;;;;;2.20;2.20;;;;;28.25;59.88;99099.53;6234320;28;96390;-71
2023/10/08 09:54:31;;;;;;;;;3.00;2.00;;;;;29.99;48.82;99105.09;6224368;27;97186;-71
2023/10/08 09:57:36;;;;;;;;;1.00;1.00;;;;;31.58;31.77;99109.38;6237642;28;96767;-71
2023/10/08 10:00:44;;;;;;;;;3.00;3.00;;;;;32.76;32.43;99114.09;6225249;27;96517;-72
2023/10/08 10:03:49;;;;;;;;;2.00;2.00;;;;;33.53;28.64;99120.59;6202263;28;96913;-71
2023/10/08 10:06:52;;;;;;;;;3.00;2.80;;;;;34.20;26.93;99117.53;6241172;27;97712;-72
2023/10/08 10:09:57;;;;;;;;;4.00;3.60;;;;;35.01;25.11;99124.47;6236268;27;96932;-74
2023/10/08 10:13:00;;;;;;;;;2.00;2.00;;;;;35.08;23.49;99130.19;6220423;28;96801;-73
2023/10/08 10:16:07;;;;;;;;;2.25;2.00;;;;;35.36;22.85;99117.75;6214910;28;96772;-69
2023/10/08 10:19:18;;;;;;;;;3.00;3.00;;;;;35.83;23.05;99120.75;6234457;27;96679;-72
2023/10/08 10:22:29;;;;;;;;;4.00;4.00;;;;;35.75;21.74;99123.88;6220334;28;97270;-74
2023/10/08 10:25:37;;;;;;;;;2.00;1.20;;;;;36.15;22.16;99134.34;6236040;27;96665;-74
2023/10/08 10:28:40;;;;;;;;;2.80;2.80;;;;;36.37;21.66;99134.16;6211472;28;98481;-74
2023/10/08 10:31:46;;;;;;;;;3.40;3.00;;;;;36.30;21.00;99139.72;6221004;28;97503;-72
2023/10/08 10:34:51;;;;;;;;;2.00;1.00;;;;;36.18;19.77;99137.19;6220212;28;96895;-70
2023/10/08 10:37:55;;;;;;;;;4.00;4.00;;;;;35.95;20.00;99140.13;6218973;28;96900;-71
2023/10/08 10:40:58;;;;;;;;;2.00;2.00;;;;;35.06;21.31;99152.16;6234207;28;96562;-73
2023/10/08 10:44:08;;;;;;;;;3.00;3.00;;;;;34.99;21.74;99154.06;6229706;28;97204;-72
2023/10/08 10:47:28;;;;;;;;;5.00;5.00;;;;;35.28;21.51;99152.50;6236332;28;96626;-73
2023/10/08 10:50:32;;;;;;;;;2.00;2.00;;;;;35.54;20.20;99136.41;6233988;27;96513;-73
2023/10/08 10:53:44;;;;;;;;;5.00;5.00;;;;;35.98;20.46;99146.97;6218347;28;96945;-71
2023/10/08 10:57:03;;;;;;;;;5.00;4.00;;;;;36.46;19.81;99156.28;6231393;28;96550;-73
2023/10/08 11:00:47;;;;;;;;;2.00;2.00;;;;;36.55;20.14;99155.97;6220075;28;96466;-71
2023/10/08 11:03:45;;;;;;;;;3.00;2.40;;;;;36.64;19.85;99164.91;6247344;27;97057;-74
2023/10/08 11:06:54;;;;;;;;;3.00;3.00;;;;;36.68;19.79;99160.13;6236703;28;96960;-72
2023/10/08 11:09:58;;;;;;;;;3.00;3.00;;;;;36.42;19.72;99163.88;6233177;28;96611;-73
2023/10/08 11:13:02;;;;;;;;;2.00;2.00;;;;;36.09;20.37;99173.16;6212021;28;96700;-73
2023/10/08 11:16:07;;;;;;;;;2.40;2.40;;;;;36.32;20.78;99170.19;6243110;27;96946;-74
2023/10/08 11:19:15;;;;;;;;;3.00;3.00;;;;;35.87;19.73;99179.72;6238991;27;96852;-71
2023/10/08 11:22:22;;;;;;;;;2.50;2.50;;;;;35.22;18.95;99174.44;6239119;27;96329;-68
2023/10/08 11:25:30;;;;;;;;;5.00;4.40;;;;;35.14;19.44;99173.47;6208914;27;97666;-73
2023/10/08 11:28:35;;;;;;;;;4.00;4.00;;;;;34.71;21.73;99174.81;6227591;28;96340;-73
2023/10/08 11:31:39;;;;;;;;;3.00;3.00;;;;;33.75;20.95;99171.41;6237325;28;96733;-73
2023/10/08 11:34:49;;;;;;;;;4.67;4.00;;;;;33.98;20.85;99180.66;6238022;28;96286;-73
2023/10/08 11:37:57;;;;;;;;;4.00;4.00;;;;;34.21;20.73;99170.31;6238782;27;96466;-74
2023/10/08 11:41:20;;;;;;;;;4.00;4.00;;;;;34.11;20.96;99168.09;6236037;28;96345;-73
2023/10/08 11:44:27;;;;;;;;;3.00;3.00;;;;;32.56;21.15;99185.75;6237037;28;96435;-73
2023/10/08 11:47:35;;;;;;;;;5.00;5.00;;;;;31.10;22.13;99184.72;6210612;28;98457;-73
2023/10/08 11:50:40;;;;;;;;;5.00;4.40;;;;;29.98;24.93;99177.72;6236307;28;96351;-73
2023/10/08 11:53:45;;;;;;;;;5.50;4.00;;;;;29.88;23.80;99180.91;6230566;28;96950;-72
2023/10/08 11:56:48;;;;;;;;;4.00;3.20;;;;;30.29;24.76;99175.25;6233796;28;97129;-72
2023/10/08 11:59:54;;;;;;;;;5.40;5.40;;;;;31.08;24.54;99192.63;6214462;28;96805;-74
2023/10/08 12:03:01;;;;;;;;;4.00;3.60;;;;;31.37;23.78;99192.34;6220924;28;98381;-73
2023/10/08 12:06:06;;;;;;;;;5.00;4.00;;;;;31.25;23.79;99195.16;6225472;27;97676;-74
2023/10/08 12:09:12;;;;;;;;;4.00;4.00;;;;;31.04;24.92;99200.84;6232079;28;96568;-73
2023/10/08 12:12:18;;;;;;;;;5.00;4.40;;;;;30.78;23.60;99211.53;6245283;27;96907;-74
2023/10/08 12:15:26;;;;;;;;;4.00;4.00;;;;;30.37;24.40;99206.91;6216969;28;96294;-74
2023/10/08 12:18:30;;;;;;;;;5.00;5.00;;;;;30.16;23.00;99215.31;6224485;27;96667;-75
2023/10/08 12:21:36;;;;;;;;;4.00;4.00;;;;;29.44;22.36;99215.78;6242680;27;96466;-75
2023/10/08 12:24:39;;;;;;;;;5.00;5.00;;;;;29.18;24.40;99221.47;6248202;27;96592;-74
2023/10/08 12:27:43;;;;;;;;;4.60;4.60;;;;;28.37;25.20;99219.72;6230931;27;96404;-74
2023/10/08 12:30:46;;;;;;;;;6.00;6.00;;;;;27.67;25.95;99222.88;6236749;28;96346;-74
2023/10/08 12:33:53;;;;;;;;;5.00;4.60;;;;;27.43;26.85;99209.47;6213263;28;96667;-73
2023/10/08 12:36:58;;;;;;;;;5.00;5.00;;;;;27.40;27.80;99225.94;6183763;28;96384;-75
2023/10/08 12:40:11;;;;;;;;;5.00;4.00;;;;;27.40;26.61;99217.63;6209883;28;96301;-75
2023/10/08 12:43:18;;;;;;;;;5.00;5.00;;;;;27.35;27.70;99229.69;6218358;28;96541;-75
2023/10/08 12:46:25;;;;;;;;;4.20;4.20;;;;;27.33;28.65;99214.50;6226146;28;96274;-74
2023/10/08 12:49:33;;;;;;;;;6.00;6.00;;;;;27.23;28.52;99217.59;6193713;28;97131;-69
2023/10/08 12:52:42;;;;;;;;;3.25;3.25;;;;;27.06;28.47;99223.94;6201685;28;96867;-75
2023/10/08 12:55:46;;;;;;;;;5.50;5.50;;;;;27.02;32.10;99223.75;6215961;28;96378;-74
2023/10/08 12:58:49;;;;;;;;;5.75;5.75;;;;;26.51;30.18;99231.81;6215054;28;97180;-74
2023/10/08 13:01:54;;;;;;;;;4.50;4.50;;;;;25.94;30.42;99230.81;6222678;28;96499;-74
2023/10/08 13:04:59;;;;;;;;;5.40;5.00;;;;;25.86;30.87;99233.19;6236439;28;96292;-75
2023/10/08 13:08:09;;;;;;;;;5.25;5.25;;;;;25.70;32.09;99234.69;6176860;28;97054;-73
2023/10/08 13:11:12;;;;;;;;;2.40;2.40;;;;;25.62;31.64;99227.13;6213196;28;97102;-73
2023/10/08 13:14:15;;;;;;;;;5.00;5.00;;;;;25.51;31.53;99235.97;6201047;28;96650;-73
2023/10/08 13:17:19;;;;;;;;;4.00;4.00;;;;;25.35;28.74;99239.06;6221408;27;96726;-71
2023/10/08 13:20:23;;;;;;;;;3.40;3.00;;;;;25.21;29.41;99248.50;6177762;28;99397;-71
2023/10/08 13:23:28;;;;;;;;;4.00;4.00;;;;;24.71;27.27;99256.66;6209861;28;96812;-72
2023/10/08 13:26:31;;;;;;;;;5.00;4.00;;;;;24.51;28.68;99251.50;6195023;28;96947;-72
2023/10/08 13:29:35;;;;;;;;;4.40;4.00;;;;;24.30;27.34;99261.25;6215062;28;96342;-72
2023/10/08 13:32:38;;;;;;;;;3.80;3.80;;;;;24.22;28.31;99275.75;6198723;28;96377;-72
2023/10/08 13:35:41;;;;;;;;;3.00;3.00;;;;;23.91;28.21;99270.69;6234293;27;97275;-72
2023/10/08 13:38:47;;;;;;;;;4.00;4.00;;;;;23.79;28.71;99281.38;6251329;27;96320;-71
2023/10/08 13:41:52;;;;;;;;;5.00;5.00;;;;;23.43;27.53;99277.44;6243131;27;96546;-71
2023/10/08 13:44:57;;;;;;;;;4.00;4.00;;;;;23.30;28.22;99277.09;6240023;28;96461;-73
2023/10/08 13:48:01;;;;;;;;;4.00;4.00;;;;;23.26;28.83;99281.50;6240508;28;96871;-73
2023/10/08 13:51:13;;;;;;;;;4.00;4.00;;;;;23.25;29.25;99295.59;6229980;27;96367;-72
2023/10/08 13:54:20;;;;;;;;;3.20;3.20;;;;;23.12;29.74;99299.03;6225316;27;96850;-71
2023/10/08 13:57:26;;;;;;;;;4.25;4.25;;;;;22.94;32.24;99295.13;6262796;27;96430;-69
2023/10/08 14:00:36;;;;;;;;;3.00;2.00;;;;;22.84;32.69;99303.47;6244213;27;96561;-71
2023/10/08 14:03:41;;;;;;;;;4.00;4.00;;;;;22.68;32.00;99310.22;6237533;27;96913;-70
2023/10/08 14:06:48;;;;;;;;;4.00;3.00;;;;;22.50;31.68;99310.97;6236398;28;96924;-70
2023/10/08 14:09:53;;;;;;;;;5.00;4.00;;;;;22.47;30.98;99320.59;6219111;28;96415;-70
2023/10/08 14:13:01;;;;;;;;;2.00;2.00;;;;;22.37;31.16;99323.44;6237452;27;97353;-72
2023/10/08 14:16:08;;;;;;;;;5.00;4.00;;;;;22.38;31.08;99328.63;6239467;28;96491;-72
2023/10/08 14:19:12;;;;;;;;;5.00;5.00;;;;;22.28;31.30;99327.94;6239065;27;96841;-72
2023/10/08 14:22:16;;;;;;;;;6.00;5.80;;;;;22.11;30.28;99335.72;6222207;28;97342;-72
2023/10/08 14:25:24;;;;;;;;;6.25;6.00;;;;;21.83;30.76;99337.28;6221075;28;97049;-72
2023/10/08 14:28:40;;;;;;;;;2.00;2.00;;;;;21.32;30.90;99323.81;6219543;28;96476;-72
2023/10/08 14:31:48;;;;;;;;;4.00;4.00;;;;;21.02;31.96;99332.13;6237962;28;96378;-71
2023/10/08 14:44:54;;;;;;;;;5.80;4.80;;;;;20.92;37.22;99332.16;6187193;28;99171;-72
2023/10/08 14:47:59;;;;;;;;;4.00;4.00;;;;;20.89;37.65;99332.72;6219266;28;96456;-73
2023/10/08 14:51:03;;;;;;;;;4.67;4.67;;;;;20.88;38.74;99342.84;6220822;28;96462;-73
2023/10/08 14:54:08;;;;;;;;;4.50;4.00;;;;;20.77;39.01;99343.19;6219793;28;96332;-73
2023/10/08 14:57:14;;;;;;;;;3.00;3.00;;;;;20.63;37.59;99353.88;6239801;28;96327;-73